KCFV - Coffeyville, Kansas, USA
Distance from station: ENE 93mi, 150km
Updated: Sat, 06-Mar-2021 8:52am PST
Clear
Clear
 Wind from S
Wind: S 9 mph , 15 km/h
Temperature: 55°F , 13°C
Dew Point: 34°F , 1°C
Humidity: 44%
Barometer: 30.36 inHg , 1028.1 hPa
Clouds: Clear
Visibility: 10 miles , 16 km
2021/03/06 16:52 KCFV 061652Z AUTO 19008KT 10SM CLR 13/01 A3036 RMK AO2 SLP285 T01280006
KIDP - Independence, Kansas, USA
Distance from station: NE 86mi, 138km
Updated: Sat, 06-Mar-2021 9:15am PST
Clear
Clear
 Wind from WSW
Wind: WSW 8 mph , 13 km/h
Temperature: 55°F , 13°C
Dew Point: 37°F , 3°C
Humidity: 51%
Barometer: 30.37 inHg , 1028.4 hPa
Clouds: Clear
Visibility: 10 miles , 16 km
2021/03/06 17:15 KIDP 061715Z AUTO 24007KT 10SM CLR 13/03 A3037 RMK AO2 T01330028
 
KIAB - Mcconnell Afb, Kansas, USA
Distance from station: N 84mi, 135km
Updated: Sat, 06-Mar-2021 8:56am PST
Clear
Clear
 Wind from SW
Wind: SW 12 mph , 19 km/h
Temperature: 55°F , 13°C
Dew Point: 41°F , 5°C
Humidity: 59%
Barometer: 30.32 inHg , 1026.8 hPa
Clouds: Clear
Visibility: 10 miles , 16 km
2021/03/06 16:56 KIAB 061656Z AUTO 23010KT 10SM CLR 13/05 A3032 RMK AO2 SLP272 T01310053
KICT - Wichita, Kansas, USA
Distance from station: NNW 88mi, 142km
Updated: Sat, 06-Mar-2021 8:53am PST
Clear
Clear
 Wind from SW
Wind: SW 14 mph , 22 km/h
Temperature: 57°F , 14°C
Dew Point: 43°F , 6°C
Humidity: 59%
Barometer: 30.32 inHg , 1026.8 hPa
Clouds: Clear
Visibility: 10 miles , 16 km
2021/03/06 16:53 KICT 061653Z 23012KT 10SM CLR 14/06 A3032 RMK AO2 SLP270 T01390061
 
KAAO - Wichita/Jabara, Kansas, USA
Distance from station: N 93mi, 149km
Updated: Sat, 06-Mar-2021 8:54am PST
Clear
Clear
 Wind from SW
Wind: SW 13 mph , 20 km/h
Temperature: 57°F , 14°C
Dew Point: 41°F , 5°C
Humidity: 55%
Barometer: 30.33 inHg , 1027.1 hPa
Clouds: Clear
Visibility: 10 miles , 16 km
2021/03/06 16:54 KAAO 061654Z AUTO 23011KT 10SM CLR 14/05 A3033 RMK AO2 SLP273 T01390050
KWLD - Winfield/Arkansa, Kansas, USA
Distance from station: N 52mi, 84km
Updated: Sat, 06-Mar-2021 8:54am PST
Clear
Clear
 Wind from WSW
Wind: WSW 12 mph , 19 km/h
Temperature: 55°F , 13°C
Dew Point: 41°F , 5°C
Humidity: 59%
Barometer: 30.36 inHg , 1028.1 hPa
Clouds: Clear
Visibility: 10 miles , 16 km
2021/03/06 16:54 KWLD 061654Z AUTO 24010KT 10SM CLR 13/05 A3036 RMK AO2 SLP283 T01280050
 
KAVK - Alva, Oklahoma, USA
Distance from station: WNW 94mi, 152km
Updated: Sat, 06-Mar-2021 9:15am PST
Clear
Clear
 Wind from SW
Wind: SW 14 mph , 22 km/h
Temperature: 57°F , 14°C
Dew Point: 48°F , 9°C
Humidity: 72%
Barometer: 30.32 inHg , 1026.8 hPa
Clouds: Clear
Visibility: 10 miles , 16 km
2021/03/06 17:15 KAVK 061715Z AUTO 22012KT 10SM CLR 14/09 A3032 RMK AO2 PWINO TSNO
KBVO - Bartlesville, Oklahoma, USA
Distance from station: ENE 61mi, 98km
Updated: Sat, 06-Mar-2021 8:53am PST
Clear
Clear
 Wind from varies
Wind: varies 6 mph , 9 km/h
Temperature: 55°F , 13°C
Dew Point: 36°F , 2°C
Humidity: 47%
Barometer: 30.39 inHg , 1029.1 hPa
Clouds: Clear
Visibility: 10 miles , 16 km
2021/03/06 16:53 KBVO 061653Z AUTO VRB05KT 10SM CLR 13/02 A3039 RMK AO2 SLP288 T01330022
 
KBKN - Blackwell, Oklahoma, USA
Distance from station: NW 29mi, 47km
Updated: Sat, 06-Mar-2021 9:15am PST
Clear
Clear
 Wind from SSW
Wind: SSW 9 mph , 15 km/h
Temperature: 55°F , 13°C
Dew Point: 46°F , 8°C
Humidity: 72%
Barometer: 30.36 inHg , 1028.1 hPa
Clouds: Clear
Visibility: 10 miles , 16 km
2021/03/06 17:15 KBKN 061715Z AUTO 21008KT 10SM CLR 13/08 A3036 RMK AO2
KGCM - Claremore, Oklahoma, USA
Distance from station: E 86mi, 138km
Updated: Sat, 06-Mar-2021 9:15am PST
Clear
Clear
 Wind from SW
Wind: SW 5 mph , 7 km/h
Temperature: 54°F , 12°C
Dew Point: 32°F , 0°C
Humidity: 44%
Barometer: 30.40 inHg , 1029.5 hPa
Clouds: Clear
Visibility: 10 miles , 16 km
2021/03/06 17:15 KGCM 061715Z AUTO 22004KT 10SM CLR 12/00 A3040 RMK AO2
 
KCQB - Chandler, Oklahoma, USA
Distance from station: SSE 50mi, 80km
Updated: Sat, 06-Mar-2021 9:15am PST
Clear
Clear
 Wind from calm
Wind: Calm
Temperature: 55°F , 13°C
Dew Point: 39°F , 4°C
Humidity: 55%
Barometer: 30.38 inHg , 1028.8 hPa
Clouds: Clear
Visibility: 10 miles , 16 km
2021/03/06 17:15 KCQB 061715Z AUTO 00000KT 10SM CLR 13/04 A3038 RMK AO2 T01330042
KCUH - Cushing, Oklahoma, USA
Distance from station: SSE 35mi, 57km
Updated: Sat, 06-Mar-2021 9:15am PST
Clear
Clear
 Wind from calm
Wind: Calm
Temperature: 55°F , 13°C
Dew Point: 39°F , 4°C
Humidity: 55%
Barometer: 30.37 inHg , 1028.4 hPa
Clouds: Clear
Visibility: 10 miles , 16 km
2021/03/06 17:15 KCUH 061715Z AUTO 00000KT 10SM CLR 13/04 A3037 RMK AO2 T01270039
 
KRQO - El Reno Muni, Oklahoma, USA
Distance from station: SW 85mi, 137km
Updated: Sat, 06-Mar-2021 9:15am PST
Clear
Clear
 Wind from S
Wind: S 8 mph , 13 km/h
Temperature: 55°F , 13°C
Dew Point: 41°F , 5°C
Humidity: 59%
Barometer: 30.37 inHg , 1028.4 hPa
Clouds: Clear
Visibility: 10 miles , 16 km
2021/03/06 17:15 KRQO 061715Z AUTO 18007KT 10SM CLR 13/05 A3037 RMK AO2 T01300049
KEND - Enid/Vance Afb, Oklahoma, USA
Distance from station: W 50mi, 81km
Updated: Sat, 06-Mar-2021 8:56am PST
Clear
Clear
 Wind from SW
Wind: SW 9 mph , 15 km/h
Temperature: 55°F , 13°C
Dew Point: 43°F , 6°C
Humidity: 63%
Barometer: 30.34 inHg , 1027.4 hPa
Clouds: Clear
Visibility: 10 miles , 16 km
2021/03/06 16:56 KEND 061656Z AUTO 22008KT 10SM CLR 13/06 A3034 RMK AO2 SLP277 T01270061
 
KWDG - Enid/Woodring, Oklahoma, USA
Distance from station: W 42mi, 67km
Updated: Sat, 06-Mar-2021 8:45am PST
Clear
Clear
 Wind from SSW
Wind: SSW 9 mph , 15 km/h
Temperature: 54°F , 12°C
Dew Point: 45°F , 7°C
Humidity: 72%
Barometer: 30.35 inHg , 1027.8 hPa
Clouds: Clear
Visibility: 10 miles , 16 km
2021/03/06 16:45 KWDG 061645Z 20008KT 10SM CLR 12/07 A3035
KGOK - Guthrie, Oklahoma, USA
Distance from station: SSW 44mi, 71km
Updated: Sat, 06-Mar-2021 8:53am PST
Clear
Clear
 Wind from SW
Wind: SW 6 mph , 9 km/h
Temperature: 54°F , 12°C
Dew Point: 41°F , 5°C
Humidity: 63%
Barometer: 30.37 inHg , 1028.4 hPa
Clouds: Clear
Visibility: 10 miles , 16 km
2021/03/06 16:53 KGOK 061653Z AUTO 22005KT 10SM CLR 12/05 A3037 RMK AO2 SLP286 T01220050 $
 
KOUN - Norman/Westheime, Oklahoma, USA
Distance from station: SSW 84mi, 136km
Updated: Sat, 06-Mar-2021 8:45am PST
Clear
Clear
 Wind from S
Wind: S 6 mph , 9 km/h
Temperature: 54°F , 12°C
Dew Point: 37°F , 3°C
Humidity: 54%
Barometer: 30.36 inHg , 1028.1 hPa
Clouds: Clear
Visibility: 10 miles , 16 km
2021/03/06 16:45 KOUN 061645Z 19005KT 10SM CLR 12/03 A3036
KOKC - Oklahoma City, Oklahoma, USA
Distance from station: SSW 78mi, 126km
Updated: Sat, 06-Mar-2021 8:52am PST
Clear
Clear
 Wind from SSW
Wind: SSW 8 mph , 13 km/h
Temperature: 54°F , 12°C
Dew Point: 39°F , 4°C
Humidity: 58%
Barometer: 30.36 inHg , 1028.1 hPa
Clouds: Clear
Visibility: 10 miles , 16 km
2021/03/06 16:52 KOKC 061652Z 20007KT 170V230 10SM CLR 12/04 A3036 RMK AO2 SLP283 T01220039
 
KPWA - Okla City/Wiley, Oklahoma, USA
Distance from station: SSW 70mi, 113km
Updated: Sat, 06-Mar-2021 8:53am PST
Clear
Clear
 Wind from SW
Wind: SW 9 mph , 15 km/h
Temperature: 55°F , 13°C
Dew Point: 37°F , 3°C
Humidity: 51%
Barometer: 30.36 inHg , 1028.1 hPa
Clouds: Clear
Visibility: 10 miles , 16 km
2021/03/06 16:53 KPWA 061653Z 22008KT 10SM CLR 13/03 A3036 RMK AO2 SLP280 T01330028 $
KRCE - Okla City/Page, Oklahoma, USA
Distance from station: SW 78mi, 126km
Updated: Sat, 06-Mar-2021 9:15am PST
Clear
Clear
 Wind from S
Wind: S 10 mph , 17 km/h
Temperature: 55°F , 13°C
Dew Point: 39°F , 4°C
Humidity: 55%
Barometer: 30.35 inHg , 1027.8 hPa
Clouds: Clear
Visibility: 10 miles , 16 km
2021/03/06 17:15 KRCE 061715Z AUTO 19009KT 10SM CLR 13/04 A3035 RMK AO2
 
KOKM - Okmulgee, Oklahoma, USA
Distance from station: SE 79mi, 127km
Updated: Sat, 06-Mar-2021 9:15am PST
Clear
Clear
 Wind from SW
Wind: SW 5 mph , 7 km/h
Temperature: 55°F , 13°C
Dew Point: 37°F , 3°C
Humidity: 51%
Barometer: 30.38 inHg , 1028.8 hPa
Clouds: Clear
Visibility: 10 miles , 16 km
2021/03/06 17:15 KOKM 061715Z AUTO 22004KT 10SM CLR 13/03 A3038 RMK AO2 T01250029
KPNC - Ponca City, Oklahoma, USA
Distance from station: N 22mi, 36km
Updated: Sat, 06-Mar-2021 8:53am PST
Clear
Clear
 Wind from SW
Wind: SW 7 mph , 11 km/h
Temperature: 54°F , 12°C
Dew Point: 39°F , 4°C
Humidity: 58%
Barometer: 30.36 inHg , 1028.1 hPa
Clouds: Clear
Visibility: 10 miles , 16 km
2021/03/06 16:53 KPNC 061653Z AUTO 23006KT 10SM CLR 12/04 A3036 RMK AO2 SLP281 T01220044
 
KSNL - Shawnee, Oklahoma, USA
Distance from station: S 74mi, 119km
Updated: Sat, 06-Mar-2021 9:15am PST
Clear
Clear
 Wind from S
Wind: S 3 mph , 6 km/h
Temperature: 55°F , 13°C
Dew Point: 34°F , 1°C
Humidity: 44%
Barometer: 30.37 inHg , 1028.4 hPa
Clouds: Clear
Visibility: 10 miles , 16 km
2021/03/06 17:15 KSNL 061715Z AUTO 19003KT 10SM CLR 13/01 A3037 RMK AO2 T01320005
KSWO - Stillwater, Oklahoma, USA
Distance from station: S 17mi, 28km
Updated: Sat, 06-Mar-2021 8:53am PST
Clear
Clear
 Wind from WSW
Wind: WSW 10 mph , 17 km/h
Temperature: 55°F , 13°C
Dew Point: 39°F , 4°C
Humidity: 55%
Barometer: 30.37 inHg , 1028.4 hPa
Clouds: Clear
Visibility: 10 miles , 16 km
2021/03/06 16:53 KSWO 061653Z 24009KT 10SM CLR 13/04 A3037 RMK AO2 SLP282 T01330044
 
KTIK - Tinker Afb, Oklahoma, USA
Distance from station: SSW 72mi, 115km
Updated: Sat, 06-Mar-2021 8:56am PST
Clear
Clear
 Wind from WSW
Wind: WSW 6 mph , 9 km/h
Temperature: 55°F , 13°C
Dew Point: 37°F , 3°C
Humidity: 51%
Barometer: 30.36 inHg , 1028.1 hPa
Clouds: Clear
Visibility: 10 miles , 16 km
2021/03/06 16:56 KTIK 061656Z AUTO 24005KT 10SM CLR 13/03 A3036 RMK AO2 SLP291 T01270031
KTUL - Tulsa, Oklahoma, USA
Distance from station: ESE 65mi, 105km
Updated: Sat, 06-Mar-2021 8:53am PST
Clear
Clear
 Wind from WSW
Wind: WSW 5 mph , 7 km/h
Temperature: 55°F , 13°C
Dew Point: 36°F , 2°C
Humidity: 47%
Barometer: 30.38 inHg , 1028.8 hPa
Clouds: Clear
Visibility: 10 miles , 16 km
2021/03/06 16:53 KTUL 061653Z 25004KT 10SM CLR 13/02 A3038 RMK AO2 SLP285 T01280022

Metar display script from Saratoga-Weather.org